^^
Grace C. Lehan Memorial Weather Station Historical Data
Daily Summary for January 16, 2022 Units:  English    Metric   Both
Daily Weekly Monthly Yearly
  High: Low: Average:
Temperature: 7.5 °F 4.8 °F 6.2 °F
Dew Point: -1 °F -3 °F -2.5 °F
Humidity: 72.7% 62% 67%
Wind Speed: 2.2mph 0mph 0.5mph
Wind Gust: 5mph - -
Wind- - NNW
Pressure: 30.43 in 30.37 in -
Precipitation: 0.00 in    
 
 
Tabular Data for January 16, 2022
Time Temperature Dew Point Pressure Wind Wind Speed Wind Gust Humidity Rainfall Rate (Hourly) solar
00:04 7.5 °F -2.8 °F 30.37 in Calm   1 mph 62% 0.00 in 0 W/m2
00:09 7.5 °F -2.7 °F 30.38 in Calm     62.4% 0.00 in 0 W/m2
00:14 7.4 °F -2.7 °F 30.38 in NW 0.1 mph 2 mph 62.6% 0.00 in 0 W/m2
00:19 7.4 °F -2.5 °F 30.38 in NW 0.2 mph 2 mph 63% 0.00 in 0 W/m2
00:24 7.4 °F -2.5 °F 30.40 in NW 0.3 mph 5 mph 63% 0.00 in 0 W/m2
00:29 7.4 °F -2.5 °F 30.40 in NW 0.2 mph 5 mph 63% 0.00 in 0 W/m2
00:34 7.4 °F -2.5 °F 30.41 in NW 0.1 mph 5 mph 63% 0.00 in 0 W/m2
00:39 7.4 °F -2.5 °F 30.40 in Calm   1 mph 63% 0.00 in 0 W/m2
00:44 7.4 °F -2.6 °F 30.40 in Calm   1 mph 63% 0.00 in 0 W/m2
00:49 7.3 °F -2.6 °F 30.40 in Calm   1 mph 63% 0.00 in 0 W/m2
00:54 7.2 °F -2.7 °F 30.40 in Calm   1 mph 63% 0.00 in 0 W/m2
00:59 7.1 °F -2.7 °F 30.41 in Calm   1 mph 63.4% 0.00 in 0 W/m2
01:04 7 °F -2.6 °F 30.41 in Calm   1 mph 64% 0.00 in 0 W/m2
01:09 7 °F -2.5 °F 30.41 in Calm     64.5% 0.00 in 0 W/m2
01:14 6.9 °F -2.4 °F 30.42 in Calm     65% 0.00 in 0 W/m2
01:19 6.9 °F -2.7 °F 30.42 in Calm     64% 0.00 in 0 W/m2
01:24 6.8 °F -2.5 °F 30.42 in Calm     64.8% 0.00 in 0 W/m2
01:29 6.8 °F -2.3 °F 30.43 in Calm     65.6% 0.00 in 0 W/m2
01:34 6.8 °F -2.2 °F 30.43 in Calm     66% 0.00 in 0 W/m2
01:39 6.7 °F -2.2 °F 30.42 in NW 0.1 mph 2 mph 66% 0.00 in 0 W/m2
01:44 6.7 °F -2.2 °F 30.42 in Calm   2 mph 66% 0.00 in 0 W/m2
01:49 6.7 °F -2.2 °F 30.42 in NW 0.2 mph 3 mph 66% 0.00 in 0 W/m2
01:54 6.7 °F -2.2 °F 30.42 in NW 0.1 mph 3 mph 66% 0.00 in 0 W/m2
01:59 6.7 °F -2.2 °F 30.41 in NW 0.1 mph 3 mph 66% 0.00 in 0 W/m2
02:04 6.7 °F -2.2 °F 30.42 in Calm   3 mph 66% 0.00 in 0 W/m2
02:09 6.7 °F -2.2 °F 30.41 in NW 0.6 mph 2 mph 66% 0.00 in 0 W/m2
02:14 6.7 °F -2.5 °F 30.42 in NW 0.6 mph 3 mph 65% 0.00 in 0 W/m2
02:19 6.7 °F -2.6 °F 30.42 in NW 0.7 mph 3 mph 64.8% 0.00 in 0 W/m2
02:24 6.7 °F -2.8 °F 30.42 in NW 0.5 mph 3 mph 64.3% 0.00 in 0 W/m2
02:29 6.7 °F -2.6 °F 30.42 in NNW 0.5 mph 4 mph 64.8% 0.00 in 0 W/m2
02:34 6.7 °F -2.7 °F 30.42 in NNW 0.4 mph 4 mph 64.6% 0.00 in 0 W/m2
02:39 6.7 °F -2.6 °F 30.41 in NNW 0.7 mph 4 mph 65% 0.00 in 0 W/m2
02:44 6.7 °F -2.6 °F 30.41 in NNW 0.3 mph 4 mph 65% 0.00 in 0 W/m2
02:49 6.6 °F -2.6 °F 30.41 in NNW 0.4 mph 4 mph 65% 0.00 in 0 W/m2
02:54 6.6 °F -2.7 °F 30.41 in NNW 0.3 mph 4 mph 65% 0.00 in 0 W/m2
02:59 6.5 °F -2.5 °F 30.41 in Calm   4 mph 65.5% 0.00 in 0 W/m2
03:04 6.5 °F -2.4 °F 30.41 in NNW 0.3 mph 4 mph 66% 0.00 in 0 W/m2
03:09 6.4 °F -2.5 °F 30.41 in NNW 0.4 mph 2 mph 66.2% 0.00 in 0 W/m2
03:14 6.3 °F -2.5 °F 30.40 in NNW 0.9 mph 3 mph 66.5% 0.00 in 0 W/m2
03:19 6.2 °F -2.4 °F 30.40 in NNW 0.9 mph 5 mph 67% 0.00 in 0 W/m2
03:24 6.2 °F -2.4 °F 30.40 in NNW 0.4 mph 5 mph 67% 0.00 in 0 W/m2
03:29 6.1 °F -2.4 °F 30.40 in NNW 0.1 mph 5 mph 67.3% 0.00 in 0 W/m2
03:34 6 °F -2.3 °F 30.40 in NNW 1 mph 5 mph 68% 0.00 in 0 W/m2
03:39 6 °F -2.3 °F 30.40 in NNW 0.1 mph 3 mph 68% 0.00 in 0 W/m2
03:44 6 °F -2.3 °F 30.40 in NNW 0.4 mph 4 mph 68% 0.00 in 0 W/m2
03:49 5.9 °F -2.1 °F 30.40 in NNW 0.1 mph 4 mph 68.7% 0.00 in 0 W/m2
03:54 5.9 °F -1 °F 30.40 in Calm   4 mph 72.7% 0.00 in 0 W/m2
03:59 5.9 °F -2.1 °F 30.40 in NNW 0.7 mph 4 mph 69% 0.00 in 0 W/m2
04:00 5.8 °F -2.2 °F 30.40 in Calm   4 mph 69% 0.00 in 0 W/m2
04:09 5.8 °F -2.2 °F 30.40 in Calm   1 mph 69% 0.00 in 0 W/m2
04:14 5.8 °F -1.9 °F 30.40 in NNW 0.2 mph 3 mph 69.8% 0.00 in 0 W/m2
04:19 5.8 °F -2.1 °F 30.40 in NNW 0.3 mph 3 mph 69.2% 0.00 in 0 W/m2
04:24 5.7 °F -2.2 °F 30.40 in Calm   3 mph 69.1% 0.00 in 0 W/m2
04:29 5.7 °F -2 °F 30.40 in NNW 0.3 mph 3 mph 70% 0.00 in 0 W/m2
04:34 5.7 °F -2 °F 30.40 in NNW 1.6 mph 5 mph 69.8% 0.00 in 0 W/m2
04:39 5.6 °F -2.3 °F 30.40 in NNW 1 mph 5 mph 69% 0.00 in 0 W/m2
04:44 5.6 °F -2.4 °F 30.40 in NNW 0.9 mph 5 mph 69% 0.00 in 0 W/m2
04:49 5.6 °F -2.4 °F 30.41 in NNW 1.2 mph 5 mph 69% 0.00 in 0 W/m2
04:54 5.6 °F -2.4 °F 30.41 in NNW 0.2 mph 5 mph 69% 0.00 in 0 W/m2
04:59 5.6 °F -2.4 °F 30.41 in NNW 0.3 mph 5 mph 69% 0.00 in 0 W/m2
05:04 5.5 °F -2.4 °F 30.41 in NNW 0.4 mph 5 mph 69% 0.00 in 0 W/m2
05:09 5.5 °F -2.5 °F 30.41 in NNW 1 mph 4 mph 69% 0.00 in 0 W/m2
05:14 5.5 °F -2.5 °F 30.41 in NNW 1.1 mph 4 mph 69% 0.00 in 0 W/m2
05:19 5.4 °F -2.6 °F 30.41 in NNW 1.2 mph 4 mph 68.8% 0.00 in 0 W/m2
05:24 5.4 °F -2.6 °F 30.41 in NNW 1.6 mph 4 mph 68.8% 0.00 in 0 W/m2
05:29 5.4 °F -2.6 °F 30.41 in NNW 2.2 mph 4 mph 68.7% 0.00 in 0 W/m2
05:34 5.4 °F -2.9 °F 30.41 in NNW 1.1 mph 4 mph 68% 0.00 in 0 W/m2
05:39 5.3 °F -2.8 °F 30.42 in NNW 0.7 mph 4 mph 68.3% 0.00 in 0 W/m2
05:44 5.3 °F -2.6 °F 30.42 in NNW 1.6 mph 4 mph 69% 0.00 in 0 W/m2
05:49 5.2 °F -2.7 °F 30.42 in NNW 0.3 mph 4 mph 69% 0.00 in 0 W/m2
05:54 5.2 °F -2.8 °F 30.42 in NNW 1.1 mph 4 mph 69% 0.00 in 0 W/m2
05:59 5.1 °F -2.8 °F 30.42 in NNW 0.8 mph 4 mph 69% 0.00 in 0 W/m2
06:04 5.1 °F -2.9 °F 30.42 in NNW 1.2 mph 4 mph 69% 0.00 in 0 W/m2
06:09 5 °F -2.9 °F 30.42 in NNW 1 mph 5 mph 69% 0.00 in 0 W/m2
06:14 4.9 °F -3 °F 30.42 in NNW 0.6 mph 5 mph 69% 0.00 in 0 W/m2
06:19 4.9 °F -2.9 °F 30.43 in NNW 0.9 mph 5 mph 69.3% 0.00 in 0 W/m2
06:24 4.9 °F -2.7 °F 30.43 in NNW 2 mph 5 mph 70% 0.00 in 0 W/m2
06:29 4.8 °F -2.8 °F 30.43 in NNW 1.7 mph 5 mph 70% 0.00 in 0 W/m2
06:33 4.8 °F -2.8 °F 30.42 in NNW 0.5 mph 5 mph 70% 0.00 in 0 W/m2
Hartford County Weather
Compliments of Weather Underground - 4 mb